createdAt,value
2024-03-24T00:00:09.632Z,98485.09
2024-03-24T00:00:40.405Z,98478.56
2024-03-24T00:01:11.227Z,98480.19
2024-03-24T00:01:42.040Z,98483.31
2024-03-24T00:02:12.821Z,98482.19
2024-03-24T00:02:43.607Z,98485.47
2024-03-24T00:03:14.408Z,98486.38
2024-03-24T00:03:45.239Z,98489.72
2024-03-24T00:04:16.030Z,98485.47
2024-03-24T00:04:46.942Z,98493.56
2024-03-24T00:05:17.842Z,98492.03
2024-03-24T00:05:48.688Z,98492.47
2024-03-24T00:06:19.575Z,98495.84
2024-03-24T00:06:50.414Z,98498.00
2024-03-24T00:07:21.217Z,98486.94
2024-03-24T00:07:51.984Z,98477.66
2024-03-24T00:08:22.832Z,98494.84
2024-03-24T00:08:54.004Z,98500.03
2024-03-24T00:09:25.235Z,98496.88
2024-03-24T00:09:56.030Z,98502.94
2024-03-24T00:10:26.867Z,98500.22
2024-03-24T00:10:58.140Z,98508.06
2024-03-24T00:11:28.955Z,98502.09
2024-03-24T00:11:59.746Z,98501.41
2024-03-24T00:12:30.778Z,98506.88
2024-03-24T00:13:01.601Z,98499.97
2024-03-24T00:13:32.430Z,98521.88
2024-03-24T00:14:03.395Z,98521.75
2024-03-24T00:14:34.230Z,98526.13
2024-03-24T00:15:05.393Z,98531.31
2024-03-24T00:15:36.269Z,98537.72
2024-03-24T00:16:08.507Z,98529.84
2024-03-24T00:16:39.360Z,98540.50
2024-03-24T00:17:10.176Z,98536.00
2024-03-24T00:17:40.956Z,98536.06
2024-03-24T00:18:11.767Z,98546.81
2024-03-24T00:18:42.607Z,98548.28
2024-03-24T00:19:13.856Z,98537.84
2024-03-24T00:19:44.655Z,98537.53
2024-03-24T00:20:15.551Z,98547.31
2024-03-24T00:20:46.360Z,98549.97
2024-03-24T00:21:17.185Z,98554.16
2024-03-24T00:21:47.993Z,98558.41
2024-03-24T00:22:20.801Z,98554.97
2024-03-24T00:22:51.640Z,98559.50
2024-03-24T00:23:22.447Z,98562.31
2024-03-24T00:23:53.259Z,98567.50
2024-03-24T00:24:24.455Z,98561.34
2024-03-24T00:24:55.239Z,98573.13
2024-03-24T00:25:26.446Z,98548.91
2024-03-24T00:25:57.315Z,98570.03
2024-03-24T00:26:29.240Z,98575.06
2024-03-24T00:27:00.686Z,98572.19
2024-03-24T00:27:31.525Z,98560.31
2024-03-24T00:28:03.139Z,98572.44
2024-03-24T00:28:35.280Z,98566.28
2024-03-24T00:29:06.099Z,98557.50
2024-03-24T00:29:36.921Z,98564.25
2024-03-24T00:30:09.254Z,98555.50
2024-03-24T00:30:40.120Z,98559.31
2024-03-24T00:31:10.948Z,98561.00
2024-03-24T00:31:41.749Z,98564.69
2024-03-24T00:32:12.555Z,98555.66
2024-03-24T00:32:43.406Z,98557.69
2024-03-24T00:33:14.589Z,98562.03
2024-03-24T00:33:45.392Z,98567.31
2024-03-24T00:34:16.748Z,98554.28
2024-03-24T00:34:47.531Z,98554.19
2024-03-24T00:35:18.839Z,98550.31
2024-03-24T00:35:49.889Z,98569.50
2024-03-24T00:36:20.863Z,98571.13
2024-03-24T00:36:51.662Z,98553.19
2024-03-24T00:37:22.449Z,98571.66
2024-03-24T00:37:53.413Z,98573.38
2024-03-24T00:38:24.212Z,98559.56
2024-03-24T00:38:55.083Z,98577.19
2024-03-24T00:39:26.012Z,98551.56
2024-03-24T00:39:56.857Z,98579.66
2024-03-24T00:40:27.750Z,98572.00
2024-03-24T00:40:58.567Z,98588.75
2024-03-24T00:41:29.370Z,98575.50
2024-03-24T00:42:00.186Z,98569.38
2024-03-24T00:42:30.971Z,98577.59
2024-03-24T00:43:01.804Z,98575.81
2024-03-24T00:43:33.538Z,98568.50
2024-03-24T00:44:04.518Z,98571.63
2024-03-24T00:44:35.352Z,98582.72
2024-03-24T00:45:08.190Z,98586.19
2024-03-24T00:45:38.974Z,98567.66
2024-03-24T00:46:09.852Z,98569.66
2024-03-24T00:46:40.690Z,98570.47
2024-03-24T00:47:11.486Z,98574.88
2024-03-24T00:47:42.292Z,98573.78
2024-03-24T00:48:13.068Z,98579.13
2024-03-24T00:48:43.862Z,98573.69
2024-03-24T00:49:14.703Z,98571.16
2024-03-24T00:49:45.718Z,98564.50
2024-03-24T00:50:16.858Z,98578.53
2024-03-24T00:50:47.830Z,98584.41
2024-03-24T00:51:20.130Z,98576.03
2024-03-24T00:51:50.982Z,98579.53
2024-03-24T00:52:21.837Z,98578.38
2024-03-24T00:52:52.696Z,98588.13
2024-03-24T00:53:23.787Z,98580.31
2024-03-24T00:53:54.664Z,98579.28
2024-03-24T00:54:25.474Z,98574.88
2024-03-24T00:54:56.250Z,98570.53
2024-03-24T00:55:27.209Z,98568.41
2024-03-24T00:55:58.074Z,98560.50
2024-03-24T00:56:28.992Z,98557.16
2024-03-24T00:56:59.799Z,98545.63
2024-03-24T00:57:30.619Z,98537.59
2024-03-24T00:58:01.526Z,98540.84
2024-03-24T00:58:32.315Z,98541.88
2024-03-24T00:59:03.150Z,98542.81
2024-03-24T00:59:34.285Z,98543.66
2024-03-24T01:00:06.814Z,98540.34
2024-03-24T01:00:37.619Z,98543.84
2024-03-24T01:01:08.429Z,98548.25
2024-03-24T01:01:39.247Z,98545.69
2024-03-24T01:02:10.024Z,98548.25
2024-03-24T01:02:40.819Z,98546.88
2024-03-24T01:03:11.774Z,98554.47
2024-03-24T01:03:42.590Z,98560.59
2024-03-24T01:04:13.423Z,98565.34
2024-03-24T01:04:44.250Z,98569.75
2024-03-24T01:05:15.119Z,98569.06
2024-03-24T01:05:47.648Z,98578.38
2024-03-24T01:06:18.442Z,98581.88
2024-03-24T01:06:49.329Z,98584.56
2024-03-24T01:07:20.190Z,98580.22
2024-03-24T01:07:50.988Z,98582.28
2024-03-24T01:08:21.783Z,98580.22
2024-03-24T01:08:52.604Z,98587.22
2024-03-24T01:09:23.453Z,98584.63
2024-03-24T01:09:54.975Z,98579.34
2024-03-24T01:10:25.851Z,98586.19
2024-03-24T01:10:56.663Z,98577.75
2024-03-24T01:11:27.469Z,98588.94
2024-03-24T01:11:58.345Z,98584.56
2024-03-24T01:12:29.177Z,98589.63
2024-03-24T01:12:59.974Z,98587.72
2024-03-24T01:13:30.802Z,98595.47
2024-03-24T01:14:02.227Z,98589.22
2024-03-24T01:14:33.218Z,98581.38
2024-03-24T01:15:04.635Z,98587.44
2024-03-24T01:15:35.443Z,98581.38
2024-03-24T01:16:06.615Z,98580.44
2024-03-24T01:16:37.455Z,98581.28
2024-03-24T01:17:08.371Z,98578.56
2024-03-24T01:17:42.100Z,98578.66
2024-03-24T01:18:13.142Z,98575.91
2024-03-24T01:18:44.997Z,98570.91
2024-03-24T01:19:15.805Z,98569.03
2024-03-24T01:19:46.592Z,98564.84
2024-03-24T01:20:17.480Z,98562.53
2024-03-24T01:20:48.362Z,98565.06
2024-03-24T01:21:19.230Z,98565.06
2024-03-24T01:21:50.028Z,98563.13
2024-03-24T01:22:20.911Z,98561.44
2024-03-24T01:22:52.197Z,98550.09
2024-03-24T01:23:23.040Z,98561.34
2024-03-24T01:23:53.877Z,98558.81
2024-03-24T01:24:25.098Z,98560.59
2024-03-24T01:24:55.884Z,98557.84
2024-03-24T01:25:26.718Z,98550.72
2024-03-24T01:25:57.569Z,98560.34
2024-03-24T01:26:28.358Z,98555.16
2024-03-24T01:26:59.197Z,98560.75
2024-03-24T01:27:30.085Z,98554.38
2024-03-24T01:28:00.911Z,98564.16
2024-03-24T01:28:31.702Z,98551.47
2024-03-24T01:29:02.675Z,98552.56
2024-03-24T01:29:33.610Z,98558.75
2024-03-24T01:30:05.002Z,98567.44
2024-03-24T01:30:35.813Z,98548.28
2024-03-24T01:31:06.608Z,98562.16
2024-03-24T01:31:37.457Z,98568.44
2024-03-24T01:32:08.339Z,98563.25
2024-03-24T01:32:39.205Z,98565.88
2024-03-24T01:33:10.014Z,98559.69
2024-03-24T01:33:40.788Z,98554.56
2024-03-24T01:34:11.658Z,98572.00
2024-03-24T01:34:42.442Z,98574.53
2024-03-24T01:35:14.039Z,98577.16
2024-03-24T01:35:47.922Z,98576.53
2024-03-24T01:36:18.739Z,98573.50
2024-03-24T01:36:49.611Z,98584.75
2024-03-24T01:37:20.459Z,98583.66
2024-03-24T01:37:51.422Z,98593.13
2024-03-24T01:38:22.195Z,98592.19
2024-03-24T01:38:52.990Z,98595.69
2024-03-24T01:39:23.952Z,98593.06
2024-03-24T01:39:54.750Z,98598.41
2024-03-24T01:40:25.556Z,98607.09
2024-03-24T01:40:56.359Z,98601.13
2024-03-24T01:41:28.306Z,98604.63
2024-03-24T01:41:59.106Z,98601.97
2024-03-24T01:42:30.100Z,98603.53
2024-03-24T01:43:00.902Z,98600.09
2024-03-24T01:43:31.686Z,98585.19
2024-03-24T01:44:02.561Z,98590.41
2024-03-24T01:44:33.408Z,98590.47
2024-03-24T01:45:04.546Z,98583.25
2024-03-24T01:45:35.398Z,98587.72
2024-03-24T01:46:06.417Z,98577.16
2024-03-24T01:46:37.336Z,98584.34
2024-03-24T01:47:11.597Z,98568.78
2024-03-24T01:47:42.432Z,98564.78
2024-03-24T01:48:14.267Z,98578.06
2024-03-24T01:48:45.146Z,98573.50
2024-03-24T01:49:16.426Z,98563.09
2024-03-24T01:49:47.369Z,98553.94
2024-03-24T01:50:18.166Z,98557.78
2024-03-24T01:50:49.970Z,98571.56
2024-03-24T01:51:22.995Z,98573.03
2024-03-24T01:51:53.970Z,98572.28
2024-03-24T01:52:25.512Z,98575.59
2024-03-24T01:52:56.519Z,98571.88
2024-03-24T01:53:27.595Z,98573.66
2024-03-24T01:53:59.048Z,98574.06
2024-03-24T01:54:30.792Z,98562.47
2024-03-24T01:55:01.974Z,98558.75
2024-03-24T01:55:33.036Z,98563.88
2024-03-24T01:56:05.016Z,98558.53
2024-03-24T01:56:35.987Z,98556.63
2024-03-24T01:57:06.967Z,98559.03
2024-03-24T01:57:39.607Z,98545.06
2024-03-24T01:58:10.568Z,98543.16
2024-03-24T01:58:41.393Z,98532.72
2024-03-24T01:59:13.227Z,98537.69
2024-03-24T01:59:44.088Z,98541.34
2024-03-24T02:00:15.886Z,98545.84
2024-03-24T02:00:46.850Z,98544.81
2024-03-24T02:01:17.768Z,98543.91
2024-03-24T02:01:49.054Z,98535.75
2024-03-24T02:02:19.895Z,98527.03
2024-03-24T02:02:50.717Z,98526.13
2024-03-24T02:03:21.588Z,98519.28
2024-03-24T02:03:52.422Z,98513.56
2024-03-24T02:04:23.320Z,98519.47
2024-03-24T02:04:54.995Z,98507.53
2024-03-24T02:05:27.036Z,98517.00
2024-03-24T02:06:00.842Z,98523.03
2024-03-24T02:06:31.794Z,98525.91
2024-03-24T02:07:02.667Z,98532.31
2024-03-24T02:07:33.619Z,98528.25
2024-03-24T02:08:04.544Z,98530.31
2024-03-24T02:08:36.016Z,98538.50
2024-03-24T02:09:06.834Z,98539.53
2024-03-24T02:09:38.147Z,98544.75
2024-03-24T02:10:09.392Z,98549.47
2024-03-24T02:10:40.261Z,98549.69
2024-03-24T02:11:11.193Z,98550.25
2024-03-24T02:11:42.742Z,98547.84
2024-03-24T02:12:13.530Z,98554.22
2024-03-24T02:12:44.650Z,98554.63
2024-03-24T02:13:15.470Z,98560.00
2024-03-24T02:13:46.284Z,98565.75
2024-03-24T02:14:17.145Z,98561.00
2024-03-24T02:14:47.950Z,98556.75
2024-03-24T02:15:18.774Z,98562.94
2024-03-24T02:15:53.595Z,98556.63
2024-03-24T02:16:24.450Z,98561.91
2024-03-24T02:16:55.239Z,98554.16
2024-03-24T02:17:26.086Z,98553.06
2024-03-24T02:18:00.524Z,98554.00
2024-03-24T02:18:31.622Z,98554.78
2024-03-24T02:19:03.941Z,98551.19
2024-03-24T02:19:34.713Z,98547.00
2024-03-24T02:20:06.422Z,98546.41
2024-03-24T02:20:37.201Z,98547.97
2024-03-24T02:21:08.034Z,98541.50
2024-03-24T02:21:38.821Z,98537.94
2024-03-24T02:22:09.631Z,98528.41
2024-03-24T02:22:42.506Z,98533.41
2024-03-24T02:23:13.469Z,98535.22
2024-03-24T02:23:44.295Z,98526.28
2024-03-24T02:24:15.094Z,98524.34
2024-03-24T02:24:45.922Z,98526.97
2024-03-24T02:25:16.829Z,98528.75
2024-03-24T02:25:47.843Z,98525.25
2024-03-24T02:26:18.767Z,98530.63
2024-03-24T02:26:50.802Z,98527.16
2024-03-24T02:27:21.672Z,98525.50
2024-03-24T02:27:52.565Z,98527.22
2024-03-24T02:28:23.373Z,98529.09
2024-03-24T02:28:56.775Z,98529.09
2024-03-24T02:29:27.568Z,98517.84
2024-03-24T02:29:58.568Z,98524.13
2024-03-24T02:30:29.375Z,98521.75
2024-03-24T02:31:00.167Z,98522.91
2024-03-24T02:31:30.976Z,98526.25
2024-03-24T02:32:02.250Z,98512.03
2024-03-24T02:32:33.069Z,98512.53
2024-03-24T02:33:04.335Z,98511.22
2024-03-24T02:33:35.237Z,98503.94
2024-03-24T02:34:06.075Z,98509.09
2024-03-24T02:34:36.936Z,98507.16
2024-03-24T02:35:07.869Z,98503.53
2024-03-24T02:35:42.170Z,98510.41
2024-03-24T02:36:12.964Z,98504.69
2024-03-24T02:36:43.802Z,98493.44
2024-03-24T02:37:14.884Z,98490.06
2024-03-24T02:37:45.679Z,98491.66
2024-03-24T02:38:16.705Z,98487.31
2024-03-24T02:38:47.538Z,98484.09
2024-03-24T02:39:18.681Z,98487.41
2024-03-24T02:39:49.490Z,98482.31
2024-03-24T02:40:20.773Z,98484.84
2024-03-24T02:40:51.569Z,98484.59
2024-03-24T02:41:24.361Z,98482.91
2024-03-24T02:41:55.148Z,98475.09
2024-03-24T02:42:25.934Z,98473.53
2024-03-24T02:42:56.717Z,98481.59
2024-03-24T02:43:27.522Z,98476.41
2024-03-24T02:43:58.332Z,98463.47
2024-03-24T02:44:29.174Z,98466.78
2024-03-24T02:44:59.976Z,98461.50
2024-03-24T02:45:30.776Z,98468.56
2024-03-24T02:46:02.090Z,98457.84
2024-03-24T02:46:32.959Z,98457.56
2024-03-24T02:47:03.962Z,98465.47
2024-03-24T02:47:34.849Z,98450.91
2024-03-24T02:48:05.994Z,98457.84
2024-03-24T02:48:36.766Z,98457.03
2024-03-24T02:49:08.416Z,98453.56
2024-03-24T02:49:39.207Z,98453.66
2024-03-24T02:50:10.089Z,98445.34
2024-03-24T02:50:40.875Z,98445.59
2024-03-24T02:51:13.081Z,98443.00
2024-03-24T02:51:43.932Z,98442.41
2024-03-24T02:52:15.144Z,98445.97
2024-03-24T02:52:46.032Z,98453.56
2024-03-24T02:53:17.906Z,98452.88
2024-03-24T02:53:48.768Z,98452.00
2024-03-24T02:54:19.606Z,98459.84
2024-03-24T02:54:50.430Z,98453.13
2024-03-24T02:55:24.438Z,98450.78
2024-03-24T02:55:55.244Z,98446.53
2024-03-24T02:56:26.052Z,98460.97
2024-03-24T02:56:57.733Z,98459.72
2024-03-24T02:57:28.611Z,98466.72
2024-03-24T02:57:59.531Z,98463.91
2024-03-24T02:58:30.444Z,98458.88
2024-03-24T02:59:01.229Z,98473.75
2024-03-24T02:59:32.264Z,98470.25
2024-03-24T03:00:05.575Z,98473.59
2024-03-24T03:00:36.474Z,98470.97
2024-03-24T03:01:07.330Z,98476.41
2024-03-24T03:01:38.239Z,98471.19
2024-03-24T03:02:10.049Z,98472.28
2024-03-24T03:02:40.890Z,98478.00
2024-03-24T03:03:12.744Z,98471.03
2024-03-24T03:03:45.673Z,98466.00
2024-03-24T03:04:16.471Z,98468.78
2024-03-24T03:04:47.312Z,98467.09
2024-03-24T03:05:18.900Z,98460.88
2024-03-24T03:05:49.722Z,98455.00
2024-03-24T03:06:20.592Z,98444.69
2024-03-24T03:06:53.326Z,98457.81
2024-03-24T03:07:24.117Z,98457.94
2024-03-24T03:07:54.913Z,98452.38
2024-03-24T03:08:25.828Z,98455.00
2024-03-24T03:08:56.759Z,98451.41
2024-03-24T03:09:27.557Z,98442.81
2024-03-24T03:09:58.466Z,98448.09
2024-03-24T03:10:30.874Z,98446.63
2024-03-24T03:11:02.028Z,98455.94
2024-03-24T03:11:32.847Z,98445.72
2024-03-24T03:12:04.043Z,98428.91
2024-03-24T03:12:36.240Z,98433.63
2024-03-24T03:13:07.065Z,98433.69
2024-03-24T03:13:37.879Z,98424.00
2024-03-24T03:14:08.912Z,98421.22
2024-03-24T03:14:39.761Z,98415.72
2024-03-24T03:15:15.214Z,98410.44
2024-03-24T03:15:46.172Z,98406.25
2024-03-24T03:16:17.009Z,98403.69
2024-03-24T03:16:47.866Z,98399.44
2024-03-24T03:17:18.655Z,98411.38
2024-03-24T03:17:49.432Z,98407.03
2024-03-24T03:18:20.860Z,98404.38
2024-03-24T03:18:51.642Z,98412.38
2024-03-24T03:19:22.464Z,98423.84
2024-03-24T03:19:53.273Z,98424.63
2024-03-24T03:20:24.351Z,98426.56
2024-03-24T03:20:55.186Z,98443.22
2024-03-24T03:21:26.055Z,98442.63
2024-03-24T03:21:56.881Z,98433.00
2024-03-24T03:22:27.802Z,98443.38
2024-03-24T03:22:58.622Z,98453.91
2024-03-24T03:23:29.498Z,98458.25
2024-03-24T03:24:00.279Z,98459.03
2024-03-24T03:24:31.133Z,98460.09
2024-03-24T03:25:02.041Z,98458.47
2024-03-24T03:25:33.820Z,98467.19
2024-03-24T03:26:04.618Z,98474.38
2024-03-24T03:26:35.668Z,98463.38
2024-03-24T03:27:06.704Z,98471.28
2024-03-24T03:27:37.918Z,98474.69
2024-03-24T03:28:08.862Z,98475.75
2024-03-24T03:28:39.664Z,98472.44
2024-03-24T03:29:10.433Z,98470.50
2024-03-24T03:29:41.608Z,98480.66
2024-03-24T03:30:13.136Z,98467.63
2024-03-24T03:30:44.060Z,98480.81
2024-03-24T03:31:15.090Z,98482.75
2024-03-24T03:31:45.949Z,98474.63
2024-03-24T03:32:16.755Z,98478.81
2024-03-24T03:32:47.549Z,98473.81
2024-03-24T03:33:18.345Z,98464.25
2024-03-24T03:33:49.234Z,98482.91
2024-03-24T03:34:20.165Z,98473.06
2024-03-24T03:34:52.141Z,98476.44
2024-03-24T03:35:22.959Z,98476.63
2024-03-24T03:35:53.741Z,98465.38
2024-03-24T03:36:24.619Z,98464.25
2024-03-24T03:36:55.465Z,98458.28
2024-03-24T03:37:27.067Z,98465.31
2024-03-24T03:37:57.894Z,98472.19
2024-03-24T03:38:29.533Z,98467.69
2024-03-24T03:39:00.351Z,98468.56
2024-03-24T03:39:31.328Z,98471.06
2024-03-24T03:40:02.215Z,98472.13
2024-03-24T03:40:33.027Z,98461.19
2024-03-24T03:41:05.832Z,98476.78
2024-03-24T03:41:36.688Z,98481.88
2024-03-24T03:42:08.371Z,98479.09
2024-03-24T03:42:39.174Z,98474.53
2024-03-24T03:43:10.825Z,98467.69
2024-03-24T03:43:41.632Z,98469.34
2024-03-24T03:44:12.435Z,98463.38
2024-03-24T03:44:43.841Z,98463.22
2024-03-24T03:45:16.003Z,98454.84
2024-03-24T03:45:47.334Z,98458.19
2024-03-24T03:46:18.113Z,98450.50
2024-03-24T03:46:48.917Z,98448.56
2024-03-24T03:47:22.341Z,98446.03
2024-03-24T03:47:53.139Z,98448.34
2024-03-24T03:48:24.272Z,98444.00
2024-03-24T03:48:55.149Z,98435.50
2024-03-24T03:49:25.931Z,98436.19
2024-03-24T03:49:57.970Z,98437.97
2024-03-24T03:50:33.995Z,98436.09
2024-03-24T03:51:17.142Z,98429.19
2024-03-24T03:51:56.324Z,98426.34
2024-03-24T03:52:29.948Z,98430.22
2024-03-24T03:53:01.880Z,98440.44
2024-03-24T03:53:36.931Z,98428.06
2024-03-24T03:54:10.370Z,98430.75
2024-03-24T03:54:41.225Z,98430.81
2024-03-24T03:55:12.088Z,98426.41
2024-03-24T03:55:47.703Z,98439.50
2024-03-24T03:56:18.495Z,98432.06
2024-03-24T03:56:49.335Z,98432.75
2024-03-24T03:57:20.492Z,98433.72
2024-03-24T03:57:51.283Z,98443.00
2024-03-24T03:58:22.082Z,98429.13
2024-03-24T03:58:52.961Z,98431.94
2024-03-24T03:59:24.535Z,98446.56
2024-03-24T03:59:57.372Z,98450.81
2024-03-24T04:00:28.206Z,98453.22
2024-03-24T04:00:58.986Z,98449.81
2024-03-24T04:01:29.804Z,98451.75
2024-03-24T04:02:02.315Z,98449.13
2024-03-24T04:02:33.121Z,98457.88
2024-03-24T04:03:04.137Z,98449.25
2024-03-24T04:03:35.294Z,98460.91
2024-03-24T04:04:06.162Z,98466.31
2024-03-24T04:04:37.343Z,98476.84
2024-03-24T04:05:09.953Z,98476.84
2024-03-24T04:05:42.034Z,98481.13
2024-03-24T04:06:12.822Z,98475.75
2024-03-24T04:06:43.614Z,98483.81
2024-03-24T04:07:14.428Z,98484.91
2024-03-24T04:07:45.294Z,98491.88
2024-03-24T04:08:16.305Z,98500.47
2024-03-24T04:08:47.149Z,98497.84
2024-03-24T04:09:18.920Z,98480.41
2024-03-24T04:09:49.770Z,98502.25
2024-03-24T04:10:20.735Z,98492.63
2024-03-24T04:10:51.538Z,98505.75
2024-03-24T04:11:22.393Z,98497.00
2024-03-24T04:11:53.210Z,98495.53
2024-03-24T04:12:23.999Z,98504.97
2024-03-24T04:12:55.591Z,98508.44
2024-03-24T04:13:26.454Z,98517.56
2024-03-24T04:13:57.294Z,98520.06
2024-03-24T04:14:28.087Z,98526.06
2024-03-24T04:15:00.075Z,98526.34
2024-03-24T04:15:31.179Z,98513.25
2024-03-24T04:16:05.306Z,98514.88
2024-03-24T04:16:36.086Z,98519.13
2024-03-24T04:17:06.987Z,98507.13
2024-03-24T04:17:37.795Z,98514.09
2024-03-24T04:18:08.596Z,98519.44
2024-03-24T04:18:39.474Z,98516.50
2024-03-24T04:19:10.437Z,98511.06
2024-03-24T04:19:41.300Z,98511.94
2024-03-24T04:20:12.443Z,98514.50
2024-03-24T04:20:43.227Z,98496.44
2024-03-24T04:21:15.091Z,98506.81
2024-03-24T04:21:47.401Z,98484.41
2024-03-24T04:22:18.726Z,98508.00
2024-03-24T04:22:53.257Z,98505.97
2024-03-24T04:23:24.242Z,98501.25
2024-03-24T04:23:55.019Z,98488.69
2024-03-24T04:24:25.806Z,98509.75
2024-03-24T04:24:56.598Z,98507.91
2024-03-24T04:25:27.510Z,98513.81
2024-03-24T04:25:58.403Z,98502.19
2024-03-24T04:26:29.182Z,98514.41
2024-03-24T04:27:02.566Z,98501.50
2024-03-24T04:27:35.096Z,98510.38
2024-03-24T04:28:05.967Z,98511.31
2024-03-24T04:28:36.782Z,98507.69
2024-03-24T04:29:07.623Z,98507.75
2024-03-24T04:29:38.515Z,98511.38
2024-03-24T04:30:09.691Z,98507.13
2024-03-24T04:30:40.654Z,98509.75
2024-03-24T04:31:11.609Z,98505.56
2024-03-24T04:31:42.887Z,98510.63
2024-03-24T04:32:13.735Z,98499.28
2024-03-24T04:32:44.618Z,98510.69
2024-03-24T04:33:15.428Z,98496.13
2024-03-24T04:33:46.595Z,98489.28
2024-03-24T04:34:17.469Z,98487.34
2024-03-24T04:34:48.274Z,98489.94
2024-03-24T04:35:19.082Z,98485.59
2024-03-24T04:35:50.027Z,98492.31
2024-03-24T04:36:20.863Z,98496.59
2024-03-24T04:36:51.648Z,98489.47
2024-03-24T04:37:23.010Z,98497.53
2024-03-24T04:37:54.394Z,98485.97
2024-03-24T04:38:25.262Z,98483.59
2024-03-24T04:38:56.779Z,98489.78
2024-03-24T04:39:29.468Z,98489.63
2024-03-24T04:40:00.328Z,98489.69
2024-03-24T04:40:31.309Z,98493.25
2024-03-24T04:41:02.160Z,98472.31
2024-03-24T04:41:34.088Z,98481.72
2024-03-24T04:42:04.993Z,98478.16
2024-03-24T04:42:36.053Z,98478.22
2024-03-24T04:43:07.739Z,98468.63
2024-03-24T04:43:38.561Z,98471.50
2024-03-24T04:44:09.370Z,98475.97
2024-03-24T04:44:40.595Z,98474.25
2024-03-24T04:45:11.627Z,98481.94
2024-03-24T04:45:46.700Z,98473.34
2024-03-24T04:46:17.663Z,98477.91
2024-03-24T04:46:48.791Z,98470.22
2024-03-24T04:47:19.935Z,98478.81
2024-03-24T04:47:51.257Z,98471.78
2024-03-24T04:48:22.108Z,98477.03
2024-03-24T04:48:52.897Z,98476.34
2024-03-24T04:49:23.809Z,98484.34
2024-03-24T04:49:55.158Z,98474.72
2024-03-24T04:50:27.266Z,98499.81
2024-03-24T04:50:58.224Z,98485.09
2024-03-24T04:51:29.629Z,98488.03
2024-03-24T04:52:00.418Z,98490.78
2024-03-24T04:52:31.378Z,98486.53
2024-03-24T04:53:03.479Z,98502.75
2024-03-24T04:53:34.373Z,98500.34
2024-03-24T04:54:05.821Z,98488.91
2024-03-24T04:54:36.666Z,98500.19
2024-03-24T04:55:07.940Z,98507.03
2024-03-24T04:55:38.734Z,98503.69
2024-03-24T04:56:10.902Z,98507.16
2024-03-24T04:56:41.777Z,98501.06
2024-03-24T04:57:12.659Z,98512.50
2024-03-24T04:57:43.449Z,98509.16
2024-03-24T04:58:14.550Z,98507.59
2024-03-24T04:58:45.403Z,98511.72
2024-03-24T04:59:16.172Z,98514.44
2024-03-24T04:59:46.955Z,98509.00
2024-03-24T05:00:18.559Z,98512.72
2024-03-24T05:00:49.347Z,98525.88
2024-03-24T05:01:20.145Z,98520.53
2024-03-24T05:01:50.950Z,98514.22
2024-03-24T05:02:21.882Z,98531.63
2024-03-24T05:02:52.919Z,98535.06
2024-03-24T05:03:24.304Z,98534.09
2024-03-24T05:03:55.325Z,98530.50
2024-03-24T05:04:26.279Z,98537.44
2024-03-24T05:04:57.067Z,98530.63
2024-03-24T05:05:28.001Z,98532.28
2024-03-24T05:05:58.786Z,98533.13
2024-03-24T05:06:30.568Z,98524.66
2024-03-24T05:07:02.340Z,98540.44
2024-03-24T05:07:33.158Z,98540.44
2024-03-24T05:08:04.514Z,98539.31
2024-03-24T05:08:37.163Z,98538.97
2024-03-24T05:09:10.959Z,98540.59
2024-03-24T05:09:42.184Z,98545.81
2024-03-24T05:10:12.992Z,98544.09
2024-03-24T05:10:43.857Z,98558.97
2024-03-24T05:11:14.694Z,98561.44
2024-03-24T05:11:45.705Z,98565.94
2024-03-24T05:12:16.520Z,98564.78
2024-03-24T05:12:47.633Z,98553.56
2024-03-24T05:13:18.905Z,98573.00
2024-03-24T05:13:49.819Z,98565.34
2024-03-24T05:14:20.683Z,98569.72
2024-03-24T05:14:51.510Z,98582.66
2024-03-24T05:15:22.369Z,98579.31
2024-03-24T05:15:53.466Z,98581.88
2024-03-24T05:16:26.939Z,98592.38
2024-03-24T05:16:58.485Z,98559.31
2024-03-24T05:17:29.314Z,98595.31
2024-03-24T05:18:00.662Z,98604.94
2024-03-24T05:18:31.453Z,98597.75
2024-03-24T05:19:06.790Z,98601.75
2024-03-24T05:19:37.608Z,98605.28
2024-03-24T05:20:09.640Z,98619.41
2024-03-24T05:20:40.421Z,98637.63
2024-03-24T05:21:11.614Z,98630.69
2024-03-24T05:21:43.694Z,98628.97
2024-03-24T05:22:15.902Z,98620.94
2024-03-24T05:22:47.215Z,98623.84
2024-03-24T05:23:19.570Z,98634.50
2024-03-24T05:23:51.430Z,98636.94
2024-03-24T05:24:22.254Z,98647.41
2024-03-24T05:24:53.953Z,98643.75
2024-03-24T05:25:24.839Z,98626.34
2024-03-24T05:25:55.683Z,98644.69
2024-03-24T05:26:26.508Z,98625.44
2024-03-24T05:26:57.405Z,98635.00
2024-03-24T05:27:29.700Z,98634.16
2024-03-24T05:28:00.582Z,98625.28
2024-03-24T05:28:35.694Z,98630.59
2024-03-24T05:29:13.159Z,98627.06
2024-03-24T05:29:43.963Z,98633.09
2024-03-24T05:30:14.905Z,98637.38
2024-03-24T05:30:51.761Z,98628.47
2024-03-24T05:31:22.599Z,98625.84
2024-03-24T05:31:57.237Z,98624.78
2024-03-24T05:32:28.137Z,98630.75
2024-03-24T05:32:58.938Z,98618.31
2024-03-24T05:33:29.842Z,98615.47
2024-03-24T05:34:00.746Z,98620.63
2024-03-24T05:34:31.567Z,98605.00
2024-03-24T05:35:02.459Z,98610.25
2024-03-24T05:35:33.258Z,98623.22
2024-03-24T05:36:04.493Z,98635.09
2024-03-24T05:36:35.299Z,98622.00
2024-03-24T05:37:06.103Z,98626.56
2024-03-24T05:37:38.010Z,98626.50
2024-03-24T05:38:09.223Z,98611.41
2024-03-24T05:38:40.083Z,98620.28
2024-03-24T05:39:10.864Z,98603.63
2024-03-24T05:39:41.656Z,98608.63
2024-03-24T05:40:15.089Z,98617.38
2024-03-24T05:40:45.882Z,98625.69
2024-03-24T05:41:17.257Z,98614.88
2024-03-24T05:41:49.198Z,98622.50
2024-03-24T05:42:19.969Z,98617.03
2024-03-24T05:42:51.301Z,98616.03
2024-03-24T05:43:22.142Z,98615.31
2024-03-24T05:43:52.983Z,98613.44
2024-03-24T05:44:23.767Z,98613.34
2024-03-24T05:44:54.797Z,98605.56
2024-03-24T05:45:25.612Z,98613.44
2024-03-24T05:45:57.095Z,98606.34
2024-03-24T05:46:27.904Z,98602.50
2024-03-24T05:46:58.810Z,98604.41
2024-03-24T05:47:32.890Z,98605.97
2024-03-24T05:48:04.086Z,98597.22
2024-03-24T05:48:34.942Z,98609.31
2024-03-24T05:49:05.739Z,98603.03
2024-03-24T05:49:36.914Z,98591.09
2024-03-24T05:50:08.206Z,98595.34
2024-03-24T05:50:39.333Z,98598.41
2024-03-24T05:51:10.123Z,98597.56
2024-03-24T05:51:41.060Z,98596.88
2024-03-24T05:52:11.838Z,98599.56
2024-03-24T05:52:42.894Z,98602.97
2024-03-24T05:53:13.732Z,98591.81
2024-03-24T05:53:44.515Z,98608.78
2024-03-24T05:54:15.318Z,98604.41
2024-03-24T05:54:46.184Z,98609.59
2024-03-24T05:55:17.108Z,98618.28
2024-03-24T05:55:48.219Z,98616.09
2024-03-24T05:56:19.022Z,98626.63
2024-03-24T05:56:50.829Z,98621.22
2024-03-24T05:57:21.674Z,98632.13
2024-03-24T05:57:52.662Z,98649.59
2024-03-24T05:58:23.836Z,98640.03
2024-03-24T05:58:54.687Z,98652.94
2024-03-24T05:59:25.594Z,98669.47
2024-03-24T05:59:56.530Z,98666.72
2024-03-24T06:00:27.326Z,98661.56
2024-03-24T06:01:02.119Z,98667.84
2024-03-24T06:01:33.204Z,98658.16
2024-03-24T06:02:04.141Z,98655.22
2024-03-24T06:02:35.027Z,98650.66
2024-03-24T06:03:05.832Z,98641.34
2024-03-24T06:03:36.673Z,98639.44
2024-03-24T06:04:07.450Z,98629.25
2024-03-24T06:04:38.348Z,98632.59
2024-03-24T06:05:09.666Z,98628.88
2024-03-24T06:05:41.489Z,98620.38
2024-03-24T06:06:12.310Z,98623.50
2024-03-24T06:06:43.116Z,98623.78